createdAt,value
2019-02-06T00:02:25.425Z,10.27
2019-02-06T00:04:54.912Z,9.33
2019-02-06T00:07:23.199Z,10.53
2019-02-06T00:09:51.340Z,9.57
2019-02-06T00:12:20.007Z,10.43
2019-02-06T00:14:48.198Z,11.00
2019-02-06T00:17:16.324Z,10.27
2019-02-06T00:19:44.468Z,10.90
2019-02-06T00:22:12.719Z,11.53
2019-02-06T00:24:40.909Z,10.10
2019-02-06T00:27:09.044Z,10.50
2019-02-06T00:29:37.836Z,11.33
2019-02-06T00:32:07.045Z,10.17
2019-02-06T00:34:35.199Z,9.57
2019-02-06T00:37:03.470Z,10.27
2019-02-06T00:39:33.157Z,11.20
2019-02-06T00:42:01.309Z,11.10
2019-02-06T00:44:29.516Z,10.33
2019-02-06T00:46:57.681Z,11.27
2019-02-06T00:49:25.826Z,10.20
2019-02-06T00:51:53.995Z,10.43
2019-02-06T00:54:22.143Z,10.60
2019-02-06T00:56:50.285Z,10.07
2019-02-06T00:59:18.492Z,10.93
2019-02-06T01:01:47.351Z,10.63
2019-02-06T01:04:15.502Z,10.17
2019-02-06T01:06:43.816Z,11.07
2019-02-06T01:09:11.948Z,10.10
2019-02-06T01:11:40.100Z,10.57
2019-02-06T01:14:08.287Z,11.63
2019-02-06T01:16:36.434Z,10.77
2019-02-06T01:19:06.624Z,10.57
2019-02-06T01:21:34.861Z,11.30
2019-02-06T01:24:03.017Z,11.30
2019-02-06T01:26:31.244Z,10.37
2019-02-06T01:28:59.408Z,10.80
2019-02-06T01:31:28.824Z,10.60
2019-02-06T01:33:56.988Z,11.40
2019-02-06T01:36:25.589Z,11.53
2019-02-06T01:38:53.769Z,12.07
2019-02-06T01:41:21.887Z,12.03
2019-02-06T01:43:50.063Z,12.47
2019-02-06T01:46:18.598Z,11.73
2019-02-06T01:48:46.768Z,11.33
2019-02-06T01:51:14.956Z,11.97
2019-02-06T01:53:43.622Z,13.03
2019-02-06T01:56:11.762Z,12.70
2019-02-06T01:58:40.211Z,12.70
2019-02-06T02:01:08.349Z,11.53
2019-02-06T02:03:36.484Z,12.43
2019-02-06T02:06:04.731Z,12.60
2019-02-06T02:08:34.542Z,13.97
2019-02-06T02:11:03.093Z,12.37
2019-02-06T02:13:31.281Z,12.40
2019-02-06T02:15:59.444Z,14.03
2019-02-06T02:18:27.640Z,14.43
2019-02-06T02:20:55.818Z,13.70
2019-02-06T02:23:23.978Z,13.93
2019-02-06T02:25:52.117Z,14.03
2019-02-06T02:28:20.307Z,14.33
2019-02-06T02:30:50.279Z,15.20
2019-02-06T02:33:18.386Z,13.20
2019-02-06T02:35:46.560Z,13.50
2019-02-06T02:38:14.764Z,13.93
2019-02-06T02:40:42.922Z,14.67
2019-02-06T02:43:11.512Z,14.23
2019-02-06T02:45:39.700Z,14.33
2019-02-06T02:48:07.844Z,13.43
2019-02-06T02:50:36.147Z,12.97
2019-02-06T02:53:04.295Z,13.03
2019-02-06T02:55:32.442Z,15.27
2019-02-06T02:58:01.727Z,13.17
2019-02-06T03:00:49.446Z,14.07
2019-02-06T03:03:25.436Z,12.93
2019-02-06T03:05:53.598Z,13.57
2019-02-06T03:08:21.765Z,15.07
2019-02-06T03:10:49.928Z,14.00
2019-02-06T03:13:18.067Z,14.50
2019-02-06T03:15:46.243Z,14.97
2019-02-06T03:18:14.404Z,15.27
2019-02-06T03:20:42.558Z,15.00
2019-02-06T03:23:10.693Z,16.10
2019-02-06T03:25:38.873Z,15.10
2019-02-06T03:28:07.027Z,15.70
2019-02-06T03:30:35.184Z,16.13
2019-02-06T03:33:03.787Z,16.10
2019-02-06T03:35:31.904Z,16.30
2019-02-06T03:38:01.792Z,17.40
2019-02-06T03:40:29.967Z,16.43
2019-02-06T03:42:59.023Z,18.07
2019-02-06T03:45:27.182Z,17.30
2019-02-06T03:47:55.395Z,16.67
2019-02-06T03:50:23.528Z,18.47
2019-02-06T03:52:51.687Z,18.47
2019-02-06T03:55:19.848Z,17.83
2019-02-06T03:57:47.995Z,17.80
2019-02-06T04:00:16.908Z,18.90
2019-02-06T04:02:45.091Z,23.15
2019-02-06T04:05:13.316Z,19.40
2019-02-06T04:07:41.493Z,22.90
2019-02-06T04:10:11.304Z,23.17
2019-02-06T04:12:40.468Z,23.53
2019-02-06T04:15:09.072Z,24.03
2019-02-06T04:17:37.357Z,24.10
2019-02-06T04:23:00.612Z,22.60
2019-02-06T04:25:28.758Z,23.37
2019-02-06T04:27:56.911Z,23.70
2019-02-06T04:30:25.109Z,25.43
2019-02-06T04:32:53.248Z,24.00
2019-02-06T04:35:21.389Z,22.63
2019-02-06T04:37:49.580Z,24.23
2019-02-06T04:40:19.599Z,23.00
2019-02-06T04:42:48.119Z,22.47
2019-02-06T04:45:16.954Z,24.50
2019-02-06T04:47:45.101Z,24.10
2019-02-06T04:50:14.006Z,23.43
2019-02-06T04:52:42.281Z,25.57
2019-02-06T04:55:11.700Z,24.77
2019-02-06T04:57:39.857Z,23.73
2019-02-06T05:00:10.396Z,26.93
2019-02-06T05:02:38.537Z,26.07
2019-02-06T05:05:06.705Z,24.27
2019-02-06T05:07:34.944Z,25.03
2019-02-06T05:10:03.096Z,25.57
2019-02-06T05:12:31.231Z,24.70
2019-02-06T05:14:59.399Z,25.43
2019-02-06T05:17:27.582Z,26.97
2019-02-06T05:19:55.765Z,26.43
2019-02-06T05:22:23.915Z,26.80
2019-02-06T05:24:52.053Z,28.57
2019-02-06T05:27:21.361Z,34.85
2019-02-06T05:29:49.487Z,37.45
2019-02-06T05:32:17.939Z,31.37
2019-02-06T05:34:46.089Z,38.83
2019-02-06T05:37:14.311Z,32.43
2019-02-06T05:39:42.499Z,30.47
2019-02-06T05:42:10.653Z,32.00
2019-02-06T05:44:38.926Z,30.80
2019-02-06T05:47:08.106Z,29.43
2019-02-06T05:49:36.699Z,31.33
2019-02-06T05:52:04.986Z,32.93
2019-02-06T05:54:33.112Z,30.17
2019-02-06T05:57:01.247Z,31.80
2019-02-06T05:59:29.455Z,31.57
2019-02-06T06:01:57.598Z,32.90
2019-02-06T06:04:25.735Z,31.90
2019-02-06T06:06:53.982Z,31.07
2019-02-06T06:09:22.248Z,30.20
2019-02-06T06:11:50.396Z,33.27
2019-02-06T06:14:18.620Z,31.80
2019-02-06T06:16:46.773Z,30.90
2019-02-06T06:19:14.936Z,29.53
2019-02-06T06:21:43.228Z,30.53
2019-02-06T06:24:11.367Z,31.30
2019-02-06T06:26:39.552Z,30.30
2019-02-06T06:29:07.736Z,31.20
2019-02-06T06:31:35.879Z,30.03
2019-02-06T06:34:04.213Z,31.17
2019-02-06T06:36:32.427Z,28.67
2019-02-06T06:39:00.605Z,31.37
2019-02-06T06:41:29.896Z,29.67
2019-02-06T06:43:58.784Z,28.30
2019-02-06T06:46:27.036Z,29.53
2019-02-06T06:48:56.611Z,29.07
2019-02-06T06:51:24.779Z,27.87
2019-02-06T06:53:54.592Z,27.53
2019-02-06T06:56:22.689Z,27.53
2019-02-06T06:58:51.375Z,25.27
2019-02-06T07:01:19.529Z,25.57
2019-02-06T07:03:47.678Z,33.13
2019-02-06T07:06:17.472Z,27.50
2019-02-06T07:08:45.614Z,24.73
2019-02-06T07:11:13.783Z,26.10
2019-02-06T07:13:43.224Z,25.57
2019-02-06T07:16:11.418Z,23.80
2019-02-06T07:18:39.572Z,24.10
2019-02-06T07:21:07.755Z,25.73
2019-02-06T07:23:35.912Z,25.50
2019-02-06T07:26:04.112Z,24.07
2019-02-06T07:28:32.268Z,23.63
2019-02-06T07:31:00.583Z,23.43
2019-02-06T07:33:29.908Z,24.50
2019-02-06T07:35:58.074Z,24.53
2019-02-06T07:38:26.215Z,27.07
2019-02-06T07:40:56.318Z,26.63
2019-02-06T07:43:24.211Z,26.90
2019-02-06T07:45:52.339Z,29.43
2019-02-06T07:48:20.996Z,26.23
2019-02-06T07:50:49.165Z,28.93
2019-02-06T07:53:17.874Z,29.00
2019-02-06T07:55:46.008Z,27.67
2019-02-06T07:58:14.163Z,28.20
2019-02-06T08:00:42.314Z,27.43
2019-02-06T08:03:10.455Z,25.83
2019-02-06T08:05:38.839Z,27.03
2019-02-06T08:08:06.983Z,26.97
2019-02-06T08:10:35.415Z,26.50
2019-02-06T08:13:04.225Z,25.87
2019-02-06T08:15:32.406Z,25.07
2019-02-06T08:18:00.572Z,25.97
2019-02-06T08:20:33.111Z,26.40
2019-02-06T08:23:01.248Z,26.73
2019-02-06T08:25:29.523Z,27.03
2019-02-06T08:27:59.809Z,24.60
2019-02-06T08:30:29.529Z,25.97
2019-02-06T08:32:57.683Z,25.93
2019-02-06T08:35:25.858Z,24.17
2019-02-06T08:37:54.411Z,25.90
2019-02-06T08:40:29.485Z,26.30
2019-02-06T08:42:57.664Z,24.37
2019-02-06T08:45:25.947Z,25.33
2019-02-06T08:47:54.124Z,26.60
2019-02-06T08:50:23.305Z,24.87
2019-02-06T08:52:51.441Z,23.83
2019-02-06T08:55:21.091Z,27.57
2019-02-06T08:57:49.256Z,26.50
2019-02-06T09:00:19.075Z,26.03
2019-02-06T09:02:48.923Z,26.70
2019-02-06T09:05:17.055Z,26.93
2019-02-06T09:07:45.951Z,27.80
2019-02-06T09:10:21.579Z,26.07
2019-02-06T09:12:49.731Z,26.20
2019-02-06T09:15:19.958Z,32.67
2019-02-06T09:17:48.125Z,28.77
2019-02-06T09:20:20.110Z,27.63
2019-02-06T09:22:48.287Z,27.83
2019-02-06T09:25:19.975Z,26.13
2019-02-06T09:27:48.117Z,25.07
2019-02-06T09:30:17.618Z,25.47
2019-02-06T09:32:45.963Z,25.57
2019-02-06T09:35:14.679Z,23.07
2019-02-06T09:37:43.211Z,22.73
2019-02-06T09:40:18.636Z,21.73
2019-02-06T09:42:46.806Z,20.67
2019-02-06T09:45:15.026Z,18.13
2019-02-06T09:47:43.180Z,21.30
2019-02-06T09:50:15.744Z,19.67
2019-02-06T09:52:44.215Z,20.17
2019-02-06T09:55:12.494Z,19.57
2019-02-06T09:57:42.996Z,19.77
2019-02-06T10:00:19.100Z,20.70
2019-02-06T10:02:47.047Z,21.37
2019-02-06T10:05:15.251Z,20.47
2019-02-06T10:07:46.113Z,18.70
2019-02-06T10:10:14.792Z,20.27
2019-02-06T10:12:42.940Z,18.93
2019-02-06T10:15:12.704Z,17.90
2019-02-06T10:17:40.908Z,19.00
2019-02-06T10:20:16.407Z,17.03
2019-02-06T10:22:44.621Z,16.80
2019-02-06T10:25:13.056Z,16.77
2019-02-06T10:27:41.143Z,17.70
2019-02-06T10:30:10.935Z,17.70
2019-02-06T10:32:40.443Z,17.57
2019-02-06T10:35:08.603Z,16.73
2019-02-06T10:37:37.184Z,16.50
2019-02-06T10:40:09.195Z,16.47
2019-02-06T10:42:37.372Z,17.13
2019-02-06T10:45:07.160Z,16.13
2019-02-06T10:47:36.151Z,16.87
2019-02-06T10:50:06.095Z,16.73
2019-02-06T10:52:34.557Z,17.20
2019-02-06T10:55:03.332Z,16.30
2019-02-06T10:57:31.479Z,17.03
2019-02-06T10:59:59.657Z,16.87
2019-02-06T11:02:27.818Z,15.83
2019-02-06T11:04:57.743Z,18.27
2019-02-06T11:07:25.867Z,19.47
2019-02-06T11:09:54.008Z,18.30
2019-02-06T11:12:24.623Z,19.67
2019-02-06T11:14:52.759Z,19.40
2019-02-06T11:17:20.920Z,18.80
2019-02-06T11:19:49.071Z,18.67
2019-02-06T11:22:17.259Z,19.97
2019-02-06T11:24:46.307Z,20.60
2019-02-06T11:27:14.463Z,18.73
2019-02-06T11:29:42.620Z,21.07
2019-02-06T11:32:10.802Z,21.17
2019-02-06T11:34:38.987Z,19.20
2019-02-06T11:37:07.127Z,20.40
2019-02-06T11:39:35.303Z,20.83
2019-02-06T11:42:03.615Z,20.50
2019-02-06T11:44:31.791Z,19.93
2019-02-06T11:47:02.795Z,19.57
2019-02-06T11:49:32.591Z,20.17
2019-02-06T11:52:00.775Z,20.83
2019-02-06T11:54:29.763Z,21.77
2019-02-06T11:56:58.208Z,23.07
2019-02-06T11:59:26.678Z,23.97
2019-02-06T12:01:55.256Z,22.03
2019-02-06T12:04:23.550Z,24.17
2019-02-06T12:06:51.687Z,21.37
2019-02-06T12:09:19.827Z,22.57
2019-02-06T12:11:49.612Z,22.30
2019-02-06T12:14:17.882Z,22.70
2019-02-06T12:16:47.028Z,23.90
2019-02-06T12:19:17.130Z,23.83
2019-02-06T12:21:45.311Z,24.37
2019-02-06T12:24:13.789Z,23.67
2019-02-06T12:26:44.251Z,23.73
2019-02-06T12:29:13.113Z,24.50
2019-02-06T12:31:45.542Z,24.60
2019-02-06T12:34:13.724Z,25.67
2019-02-06T12:36:42.005Z,25.97
2019-02-06T12:39:10.155Z,26.10
2019-02-06T12:41:38.296Z,28.20
2019-02-06T12:44:08.806Z,27.77
2019-02-06T12:46:37.211Z,27.77
2019-02-06T12:49:05.367Z,25.90
2019-02-06T12:51:33.529Z,25.87
2019-02-06T12:54:01.673Z,25.57
2019-02-06T12:56:29.928Z,26.57
2019-02-06T12:58:58.119Z,26.00
2019-02-06T13:01:26.252Z,24.87
2019-02-06T13:03:54.400Z,25.50
2019-02-06T13:06:23.368Z,26.67
2019-02-06T13:08:51.507Z,24.33
2019-02-06T13:11:22.523Z,25.20
2019-02-06T13:13:50.743Z,25.10
2019-02-06T13:16:18.907Z,27.20
2019-02-06T13:18:47.046Z,24.40
2019-02-06T13:21:17.332Z,24.17
2019-02-06T13:23:45.476Z,25.90
2019-02-06T13:26:13.627Z,25.77
2019-02-06T13:28:41.791Z,25.43
2019-02-06T13:31:10.847Z,24.57
2019-02-06T13:33:38.994Z,24.63
2019-02-06T13:36:08.814Z,23.47
2019-02-06T13:38:37.175Z,22.70
2019-02-06T13:41:05.369Z,22.07
2019-02-06T13:43:33.553Z,22.57
2019-02-06T13:46:01.688Z,20.30
2019-02-06T13:48:29.883Z,19.80
2019-02-06T13:50:59.047Z,19.70
2019-02-06T13:53:28.323Z,17.33
2019-02-06T13:55:56.464Z,16.73
2019-02-06T13:58:28.766Z,16.67
2019-02-06T14:00:56.967Z,16.10
2019-02-06T14:03:25.106Z,15.37
2019-02-06T14:05:54.508Z,16.50
2019-02-06T14:08:23.042Z,16.50
2019-02-06T14:11:00.418Z,16.97
2019-02-06T14:13:22.665Z,16.60
2019-02-06T14:15:50.790Z,16.33
2019-02-06T14:18:20.400Z,16.70
2019-02-06T14:20:49.214Z,16.00
2019-02-06T14:23:19.164Z,16.00
2019-02-06T14:26:02.568Z,14.93
2019-02-06T14:28:49.047Z,15.17
2019-02-06T14:31:27.776Z,16.47
2019-02-06T14:34:09.737Z,16.20
2019-02-06T14:36:56.182Z,14.57
2019-02-06T14:39:29.507Z,15.30
2019-02-06T14:42:14.586Z,13.33
2019-02-06T14:44:44.413Z,14.30
2019-02-06T14:47:14.173Z,13.03
2019-02-06T14:50:01.436Z,13.70
2019-02-06T14:52:32.098Z,13.40
2019-02-06T14:55:18.335Z,13.97
2019-02-06T14:57:48.700Z,14.37
2019-02-06T15:00:24.179Z,15.37
2019-02-06T15:02:53.949Z,16.73
2019-02-06T15:05:24.031Z,16.17
2019-02-06T15:07:56.606Z,16.70
2019-02-06T15:10:32.602Z,17.73
2019-02-06T15:13:06.939Z,17.53
2019-02-06T15:15:54.590Z,15.90
2019-02-06T15:18:27.843Z,18.37
2019-02-06T15:21:12.811Z,19.20
2019-02-06T15:23:42.695Z,20.77
2019-02-06T15:26:12.798Z,18.50
2019-02-06T15:28:59.580Z,22.30
2019-02-06T15:31:29.359Z,20.27
2019-02-06T15:34:03.247Z,19.47
2019-02-06T15:36:36.098Z,18.63
2019-02-06T15:39:24.275Z,19.07
2019-02-06T15:41:54.051Z,19.57
2019-02-06T15:44:29.616Z,20.20
2019-02-06T15:47:14.437Z,20.17
2019-02-06T15:49:46.704Z,22.07
2019-02-06T15:52:21.488Z,22.20
2019-02-06T15:55:07.947Z,22.93
2019-02-06T15:57:54.136Z,21.87
2019-02-06T16:00:41.472Z,22.37
2019-02-06T16:03:11.963Z,23.03
2019-02-06T16:05:51.964Z,24.03
2019-02-06T16:08:27.427Z,28.27
2019-02-06T16:11:03.109Z,22.53
2019-02-06T16:13:40.123Z,24.97
2019-02-06T16:16:17.574Z,24.93
2019-02-06T16:18:50.291Z,25.60
2019-02-06T16:21:23.015Z,22.33
2019-02-06T16:23:55.627Z,22.97
2019-02-06T16:26:40.416Z,23.83
2019-02-06T16:29:13.214Z,22.53
2019-02-06T16:31:44.144Z,23.13
2019-02-06T16:34:17.565Z,22.47
2019-02-06T16:36:50.299Z,22.43
2019-02-06T16:39:23.916Z,22.17
2019-02-06T16:41:56.850Z,18.87
2019-02-06T16:44:33.643Z,21.13
2019-02-06T16:47:19.120Z,20.10
2019-02-06T16:50:05.761Z,20.37
2019-02-06T16:52:44.810Z,22.23
2019-02-06T16:55:31.388Z,19.67
2019-02-06T16:58:03.874Z,21.37
2019-02-06T17:00:33.855Z,20.97
2019-02-06T17:03:09.127Z,21.83
2019-02-06T17:05:47.635Z,21.67
2019-02-06T17:08:21.361Z,22.17
2019-02-06T17:10:51.183Z,23.03
2019-02-06T17:13:39.188Z,23.03
2019-02-06T17:16:08.975Z,22.63
2019-02-06T17:18:40.423Z,22.40
2019-02-06T17:21:19.513Z,23.77
2019-02-06T17:24:04.540Z,22.77
2019-02-06T17:26:35.775Z,23.20
2019-02-06T17:29:06.616Z,23.20
2019-02-06T17:31:45.451Z,22.83
2019-02-06T17:34:15.362Z,21.37
2019-02-06T17:37:03.058Z,22.57
2019-02-06T17:39:35.603Z,20.90
2019-02-06T17:42:15.430Z,19.97
2019-02-06T17:44:42.378Z,20.00
2019-02-06T17:47:12.163Z,20.20
2019-02-06T17:49:53.939Z,26.25
2019-02-06T17:52:30.190Z,21.70
2019-02-06T17:55:17.451Z,21.20
2019-02-06T17:57:46.379Z,19.60
2019-02-06T18:00:23.200Z,20.90
2019-02-06T18:02:51.384Z,21.80
2019-02-06T18:05:19.511Z,22.23
2019-02-06T18:07:47.652Z,21.07
2019-02-06T18:10:19.671Z,20.83
2019-02-06T18:12:49.153Z,20.57
2019-02-06T18:15:17.282Z,20.20
2019-02-06T18:17:45.450Z,19.90
2019-02-06T18:20:17.719Z,20.53
2019-02-06T18:22:45.876Z,20.53
2019-02-06T18:25:15.173Z,20.80
2019-02-06T18:27:46.624Z,19.97
2019-02-06T18:30:19.079Z,21.30
2019-02-06T18:32:47.760Z,20.63
2019-02-06T18:35:17.746Z,20.33
2019-02-06T18:37:49.380Z,19.93
2019-02-06T18:40:17.869Z,19.00
2019-02-06T18:42:46.227Z,20.30
2019-02-06T18:45:15.823Z,21.13
2019-02-06T18:47:44.016Z,20.33
2019-02-06T18:50:13.776Z,21.40
2019-02-06T18:52:41.950Z,21.10
2019-02-06T18:55:10.227Z,22.47
2019-02-06T18:57:38.671Z,31.23
2019-02-06T19:00:18.851Z,25.27
2019-02-06T19:02:47.154Z,25.73
2019-02-06T19:05:16.945Z,25.87
2019-02-06T19:07:45.083Z,25.23
2019-02-06T19:10:15.690Z,25.70
2019-02-06T19:12:47.991Z,24.53
2019-02-06T19:15:13.759Z,26.10
2019-02-06T19:17:42.042Z,25.77
2019-02-06T19:20:11.970Z,25.80
2019-02-06T19:22:40.139Z,28.83
2019-02-06T19:25:09.766Z,28.13
2019-02-06T19:27:38.237Z,27.60
2019-02-06T19:30:17.335Z,27.03
2019-02-06T19:32:45.939Z,29.03
2019-02-06T19:35:14.294Z,28.10
2019-02-06T19:37:42.448Z,28.33
2019-02-06T19:40:14.430Z,29.60
2019-02-06T19:42:42.585Z,30.10
2019-02-06T19:45:11.518Z,28.93
2019-02-06T19:47:39.654Z,29.40
2019-02-06T19:50:21.356Z,29.00
2019-02-06T19:52:49.575Z,30.27
2019-02-06T19:55:17.727Z,32.07
2019-02-06T19:57:45.978Z,30.70
2019-02-06T20:00:24.915Z,31.50
2019-02-06T20:02:53.127Z,32.65
2019-02-06T20:05:21.672Z,31.27
2019-02-06T20:07:50.487Z,29.20
2019-02-06T20:10:22.936Z,30.10
2019-02-06T20:12:51.088Z,31.00
2019-02-06T20:15:19.322Z,29.50
2019-02-06T20:17:47.484Z,30.33
2019-02-06T20:20:20.104Z,31.73
2019-02-06T20:22:49.176Z,30.73
2019-02-06T20:25:17.411Z,27.87
2019-02-06T20:27:45.547Z,30.13
2019-02-06T20:30:18.012Z,29.07
2019-02-06T20:32:46.182Z,28.20
2019-02-06T20:35:15.002Z,28.17
2019-02-06T20:37:43.168Z,29.53
2019-02-06T20:40:20.837Z,28.17
2019-02-06T20:42:49.127Z,26.87
2019-02-06T20:45:17.904Z,27.37
2019-02-06T20:47:48.127Z,27.53
2019-02-06T20:50:20.000Z,27.03
2019-02-06T20:52:48.142Z,26.37
2019-02-06T20:55:17.110Z,27.27
2019-02-06T20:57:46.036Z,28.37
2019-02-06T21:00:19.635Z,28.27
2019-02-06T21:02:47.802Z,27.87
2019-02-06T21:05:15.942Z,27.17
2019-02-06T21:07:46.288Z,29.60
2019-02-06T21:10:17.923Z,28.93
2019-02-06T21:12:47.695Z,29.40
2019-02-06T21:15:15.902Z,31.77
2019-02-06T21:17:44.063Z,28.10
2019-02-06T21:20:19.936Z,30.27
2019-02-06T21:22:49.872Z,31.13
2019-02-06T21:25:19.958Z,33.00
2019-02-06T21:27:48.782Z,33.83
2019-02-06T21:30:19.753Z,31.63
2019-02-06T21:32:47.887Z,33.90
2019-02-06T21:35:16.029Z,33.07
2019-02-06T21:37:46.500Z,32.23
2019-02-06T21:40:16.517Z,30.47
2019-02-06T21:42:44.652Z,30.20
2019-02-06T21:45:14.013Z,30.17
2019-02-06T21:47:42.148Z,29.07
2019-02-06T21:50:11.987Z,28.93
2019-02-06T21:52:40.155Z,27.13
2019-02-06T21:55:09.855Z,26.33
2019-02-06T21:57:37.991Z,25.83
2019-02-06T22:00:11.491Z,25.23
2019-02-06T22:02:39.639Z,25.17
2019-02-06T22:05:07.861Z,22.83
2019-02-06T22:07:36.031Z,24.73
2019-02-06T22:10:06.414Z,26.27
2019-02-06T22:12:34.548Z,23.43
2019-02-06T22:15:03.786Z,24.80
2019-02-06T22:17:31.919Z,22.80
2019-02-06T22:20:01.429Z,24.20
2019-02-06T22:22:29.725Z,25.43
2019-02-06T22:24:57.878Z,25.47
2019-02-06T22:27:26.019Z,24.00
2019-02-06T22:29:54.329Z,24.43
2019-02-06T22:32:22.465Z,25.80
2019-02-06T22:34:50.594Z,24.00
2019-02-06T22:37:18.837Z,26.40
2019-02-06T22:39:48.649Z,26.23
2019-02-06T22:42:17.109Z,27.43
2019-02-06T22:44:45.273Z,27.70
2019-02-06T22:47:14.192Z,25.90
2019-02-06T22:49:42.356Z,26.97
2019-02-06T22:52:10.607Z,26.37
2019-02-06T22:54:38.819Z,27.33
2019-02-06T22:57:06.960Z,27.60
2019-02-06T22:59:35.124Z,26.90
2019-02-06T23:02:03.278Z,28.10
2019-02-06T23:04:31.415Z,26.40
2019-02-06T23:07:02.077Z,25.97
2019-02-06T23:09:30.229Z,26.27
2019-02-06T23:11:58.360Z,22.60
2019-02-06T23:14:27.177Z,22.50
2019-02-06T23:16:55.308Z,23.37
2019-02-06T23:19:23.441Z,22.70
2019-02-06T23:21:51.615Z,22.67
2019-02-06T23:24:19.771Z,19.70
2019-02-06T23:26:47.911Z,21.03
2019-02-06T23:29:16.080Z,20.07
2019-02-06T23:31:44.532Z,20.37
2019-02-06T23:34:12.675Z,18.93
2019-02-06T23:36:40.839Z,19.10
2019-02-06T23:39:11.816Z,17.57
2019-02-06T23:41:39.955Z,19.80
2019-02-06T23:44:08.127Z,20.43
2019-02-06T23:46:36.257Z,22.33
2019-02-06T23:49:04.387Z,23.97
2019-02-06T23:51:32.557Z,22.87
2019-02-06T23:54:00.699Z,23.17
2019-02-06T23:56:28.841Z,26.20
2019-02-06T23:58:58.622Z,28.97
